createdAt,value
2022-09-16T00:00:27.216Z,2.00
2022-09-16T00:04:14.215Z,1.80
2022-09-16T00:07:41.027Z,1.30
2022-09-16T00:11:07.902Z,1.60
2022-09-16T00:14:34.716Z,1.80
2022-09-16T00:18:01.440Z,1.40
2022-09-16T00:21:30.273Z,2.10
2022-09-16T00:24:57.947Z,1.50
2022-09-16T00:28:25.225Z,1.50
2022-09-16T00:31:52.403Z,1.50
2022-09-16T00:35:19.493Z,1.50
2022-09-16T00:38:47.084Z,1.40
2022-09-16T00:42:14.834Z,1.20
2022-09-16T00:45:42.076Z,1.40
2022-09-16T00:49:15.869Z,1.70
2022-09-16T00:52:44.339Z,1.30
2022-09-16T00:56:14.193Z,1.40
2022-09-16T00:59:44.980Z,1.80
2022-09-16T01:03:12.552Z,1.60
2022-09-16T01:06:41.209Z,1.80
2022-09-16T01:10:09.686Z,1.60
2022-09-16T01:13:37.373Z,2.00
2022-09-16T01:17:12.973Z,2.00
2022-09-16T01:21:00.030Z,1.80
2022-09-16T01:24:45.754Z,1.70
2022-09-16T01:28:36.103Z,1.80
2022-09-16T01:32:11.663Z,1.60
2022-09-16T01:36:01.112Z,2.10
2022-09-16T01:39:37.037Z,1.90
2022-09-16T01:43:16.279Z,1.80
2022-09-16T01:46:49.431Z,1.60
2022-09-16T01:50:24.192Z,1.90
2022-09-16T01:53:57.328Z,1.90
2022-09-16T01:57:29.173Z,1.70
2022-09-16T02:01:04.144Z,1.70
2022-09-16T02:04:34.141Z,1.70
2022-09-16T02:08:07.810Z,1.90
2022-09-16T02:11:36.769Z,2.00
2022-09-16T02:15:07.366Z,1.50
2022-09-16T02:18:37.917Z,2.00
2022-09-16T02:22:09.869Z,1.70
2022-09-16T02:25:41.023Z,1.80
2022-09-16T02:29:14.891Z,1.80
2022-09-16T02:32:47.708Z,1.80
2022-09-16T02:36:17.883Z,2.10
2022-09-16T02:39:49.660Z,2.40
2022-09-16T02:43:17.198Z,1.80
2022-09-16T02:46:55.555Z,2.20
2022-09-16T02:50:28.782Z,1.70
2022-09-16T02:54:03.288Z,1.80
2022-09-16T02:57:30.359Z,1.60
2022-09-16T03:00:59.119Z,1.90
2022-09-16T03:04:25.929Z,1.90
2022-09-16T03:07:52.633Z,2.10
2022-09-16T03:11:50.134Z,2.10
2022-09-16T03:15:29.282Z,2.20
2022-09-16T03:19:05.192Z,2.40
2022-09-16T03:22:44.151Z,2.30
2022-09-16T03:26:17.778Z,2.50
2022-09-16T03:29:51.236Z,2.10
2022-09-16T03:33:26.158Z,2.40
2022-09-16T03:37:01.403Z,2.60
2022-09-16T03:40:30.401Z,2.00
2022-09-16T03:44:03.569Z,2.40
2022-09-16T03:47:31.247Z,2.70
2022-09-16T03:50:58.752Z,2.20
2022-09-16T03:54:26.104Z,2.30
2022-09-16T03:57:53.828Z,2.40
2022-09-16T04:01:21.563Z,2.10
2022-09-16T04:04:48.790Z,2.30
2022-09-16T04:08:15.759Z,2.20
2022-09-16T04:11:43.272Z,2.70
2022-09-16T04:15:12.037Z,2.40
2022-09-16T04:18:39.060Z,2.50
2022-09-16T04:22:05.947Z,2.70
2022-09-16T04:25:33.922Z,2.90
2022-09-16T04:29:00.500Z,2.50
2022-09-16T04:32:27.197Z,2.70
2022-09-16T04:35:54.195Z,3.40
2022-09-16T04:39:21.398Z,2.80
2022-09-16T04:42:52.946Z,2.80
2022-09-16T04:46:19.678Z,2.90
2022-09-16T04:49:46.532Z,2.70
2022-09-16T04:53:13.140Z,2.20
2022-09-16T04:56:39.778Z,2.60
2022-09-16T05:00:08.347Z,2.70
2022-09-16T05:03:35.272Z,2.70
2022-09-16T05:07:02.059Z,2.70
2022-09-16T05:10:28.747Z,2.20
2022-09-16T05:13:55.988Z,2.40
2022-09-16T05:17:39.777Z,2.10
2022-09-16T05:21:13.696Z,2.20
2022-09-16T05:24:40.605Z,2.10
2022-09-16T05:28:07.279Z,1.80
2022-09-16T05:31:36.496Z,2.00
2022-09-16T05:35:03.549Z,1.70
2022-09-16T05:38:30.451Z,1.80
2022-09-16T05:41:59.377Z,2.30
2022-09-16T05:45:31.461Z,1.40
2022-09-16T05:48:59.512Z,1.80
2022-09-16T05:52:26.078Z,2.00
2022-09-16T05:56:01.121Z,1.40
2022-09-16T05:59:27.884Z,1.50
2022-09-16T06:02:54.649Z,1.60
2022-09-16T06:06:26.031Z,1.50
2022-09-16T06:09:53.151Z,1.80
2022-09-16T06:13:20.185Z,1.60
2022-09-16T06:16:47.318Z,1.70
2022-09-16T06:20:14.923Z,1.90
2022-09-16T06:23:42.785Z,1.90
2022-09-16T06:27:09.959Z,1.90
2022-09-16T06:30:36.827Z,1.90
2022-09-16T06:34:03.934Z,2.10
2022-09-16T06:37:30.914Z,2.00
2022-09-16T06:41:01.634Z,2.10
2022-09-16T06:44:28.547Z,1.80
2022-09-16T06:47:55.560Z,2.10
2022-09-16T06:51:24.059Z,2.10
2022-09-16T06:54:50.907Z,2.10
2022-09-16T06:58:17.622Z,1.90
2022-09-16T07:01:44.884Z,1.50
2022-09-16T07:05:12.469Z,1.70
2022-09-16T07:08:40.031Z,1.90
2022-09-16T07:12:07.944Z,1.90
2022-09-16T07:15:39.258Z,1.60
2022-09-16T07:19:17.849Z,1.80
2022-09-16T07:22:45.126Z,1.90
2022-09-16T07:26:15.486Z,1.80
2022-09-16T07:29:42.152Z,1.70
2022-09-16T07:33:08.840Z,2.20
2022-09-16T07:36:37.433Z,1.60
2022-09-16T07:40:04.785Z,1.80
2022-09-16T07:43:31.647Z,1.70
2022-09-16T07:46:58.459Z,1.80
2022-09-16T07:50:25.606Z,1.90
2022-09-16T07:53:56.598Z,2.20
2022-09-16T07:57:24.130Z,2.00
2022-09-16T08:00:51.489Z,1.90
2022-09-16T08:04:19.728Z,2.00
2022-09-16T08:07:46.521Z,1.60
2022-09-16T08:11:14.476Z,1.70
2022-09-16T08:14:41.160Z,1.80
2022-09-16T08:18:08.029Z,1.30
2022-09-16T08:21:34.777Z,1.40
2022-09-16T08:25:01.520Z,1.40
2022-09-16T08:28:39.940Z,1.00
2022-09-16T08:32:17.422Z,1.60
2022-09-16T08:35:44.084Z,1.60
2022-09-16T08:39:12.786Z,1.50
2022-09-16T08:42:59.321Z,1.60
2022-09-16T08:46:35.414Z,1.30
2022-09-16T08:50:06.485Z,2.20
2022-09-16T08:53:41.117Z,1.50
2022-09-16T08:57:12.191Z,1.60
2022-09-16T09:00:40.453Z,1.40
2022-09-16T09:04:07.744Z,1.80
2022-09-16T09:08:02.333Z,1.20
2022-09-16T09:11:36.027Z,1.60
2022-09-16T09:15:14.749Z,1.80
2022-09-16T09:18:46.459Z,1.50
2022-09-16T09:22:28.734Z,1.60
2022-09-16T09:25:59.700Z,1.40
2022-09-16T09:29:52.678Z,1.40
2022-09-16T09:33:46.042Z,1.50
2022-09-16T09:37:29.996Z,1.80
2022-09-16T09:41:01.329Z,1.20
2022-09-16T09:44:55.309Z,1.30
2022-09-16T09:48:27.915Z,1.20
2022-09-16T09:52:00.130Z,1.20
2022-09-16T09:55:32.747Z,1.60
2022-09-16T09:59:05.607Z,1.50
2022-09-16T10:02:32.185Z,1.30
2022-09-16T10:05:58.987Z,1.00
2022-09-16T10:09:26.204Z,1.10
2022-09-16T10:12:53.532Z,1.10
2022-09-16T10:16:22.721Z,1.40
2022-09-16T10:19:57.996Z,1.00
2022-09-16T10:23:29.759Z,1.10
2022-09-16T10:26:57.739Z,0.90
2022-09-16T10:30:24.633Z,1.20
2022-09-16T10:33:51.569Z,1.50
2022-09-16T10:37:20.526Z,1.50
2022-09-16T10:40:55.990Z,1.20
2022-09-16T10:44:26.285Z,1.00
2022-09-16T10:47:56.883Z,0.70
2022-09-16T10:51:27.259Z,1.10
2022-09-16T10:54:54.772Z,0.80
2022-09-16T10:58:21.897Z,0.80
2022-09-16T11:01:57.380Z,1.30
2022-09-16T11:05:33.699Z,1.00
2022-09-16T11:09:12.593Z,0.90
2022-09-16T11:12:55.775Z,1.00
2022-09-16T11:16:50.741Z,1.00
2022-09-16T11:20:43.551Z,0.90
2022-09-16T11:24:45.511Z,1.20
2022-09-16T11:28:33.572Z,0.70
2022-09-16T11:32:11.805Z,0.80
2022-09-16T11:36:17.742Z,0.60
2022-09-16T11:39:58.740Z,0.90
2022-09-16T11:43:44.132Z,0.80
2022-09-16T11:47:27.464Z,1.00
2022-09-16T11:51:02.324Z,0.80
2022-09-16T11:54:44.933Z,1.00
2022-09-16T11:58:21.609Z,0.70
2022-09-16T12:01:54.435Z,0.70
2022-09-16T12:05:24.366Z,0.70
2022-09-16T12:09:00.221Z,0.60
2022-09-16T12:12:32.506Z,0.80
2022-09-16T12:16:03.203Z,1.00
2022-09-16T12:19:34.895Z,0.90
2022-09-16T12:23:07.718Z,0.90
2022-09-16T12:26:39.961Z,0.50
2022-09-16T12:30:15.092Z,0.80
2022-09-16T12:33:51.656Z,0.80
2022-09-16T12:37:30.922Z,0.90
2022-09-16T12:41:13.548Z,0.60
2022-09-16T12:44:55.480Z,0.70
2022-09-16T12:49:01.848Z,1.30
2022-09-16T12:52:46.738Z,0.70
2022-09-16T12:56:21.921Z,1.10
2022-09-16T13:00:15.384Z,0.70
2022-09-16T13:03:46.402Z,0.80
2022-09-16T13:07:23.836Z,0.70
2022-09-16T13:11:30.305Z,1.00
2022-09-16T13:14:55.298Z,1.10
2022-09-16T13:18:38.646Z,0.60
2022-09-16T13:22:16.078Z,0.60
2022-09-16T13:25:51.693Z,0.70
2022-09-16T13:29:41.634Z,0.90
2022-09-16T13:33:29.483Z,0.80
2022-09-16T13:36:56.369Z,0.70
2022-09-16T13:40:25.880Z,1.00
2022-09-16T13:47:31.701Z,0.90
2022-09-16T13:51:01.231Z,1.30
2022-09-16T13:54:53.507Z,0.50
2022-09-16T13:58:30.929Z,0.70
2022-09-16T14:02:09.425Z,0.70
2022-09-16T14:06:00.853Z,0.70
2022-09-16T14:09:44.122Z,0.70
2022-09-16T14:13:16.835Z,0.50
2022-09-16T14:16:46.162Z,0.60
2022-09-16T14:20:19.495Z,1.40
2022-09-16T14:23:46.290Z,0.90
2022-09-16T14:27:23.591Z,0.80
2022-09-16T14:30:53.713Z,0.70
2022-09-16T14:34:27.784Z,0.80
2022-09-16T14:37:58.632Z,0.70
2022-09-16T14:41:32.147Z,1.00
2022-09-16T14:45:01.086Z,0.70
2022-09-16T14:48:34.358Z,0.80
2022-09-16T14:52:03.135Z,0.80
2022-09-16T14:55:31.494Z,1.20
2022-09-16T14:59:00.209Z,0.80
2022-09-16T15:02:31.806Z,0.80
2022-09-16T15:06:05.596Z,0.80
2022-09-16T15:09:42.615Z,1.00
2022-09-16T15:13:14.059Z,0.80
2022-09-16T15:16:46.440Z,0.80
2022-09-16T15:20:25.735Z,1.00
2022-09-16T15:23:54.566Z,0.80
2022-09-16T15:27:26.687Z,0.80
2022-09-16T15:30:55.479Z,0.90
2022-09-16T15:34:25.351Z,1.20
2022-09-16T15:37:58.220Z,1.20
2022-09-16T15:41:25.482Z,0.90
2022-09-16T15:44:56.253Z,1.00
2022-09-16T15:48:24.192Z,1.30
2022-09-16T15:51:53.275Z,0.90
2022-09-16T15:55:30.764Z,1.20
2022-09-16T15:59:02.702Z,1.10
2022-09-16T16:02:37.355Z,0.90
2022-09-16T16:06:05.005Z,1.10
2022-09-16T16:09:39.050Z,1.20
2022-09-16T16:13:06.566Z,1.00
2022-09-16T16:16:45.653Z,1.10
2022-09-16T16:20:22.864Z,1.30
2022-09-16T16:23:49.699Z,1.20
2022-09-16T16:27:16.399Z,1.10
2022-09-16T16:30:43.681Z,1.20
2022-09-16T16:34:10.340Z,1.70
2022-09-16T16:37:46.470Z,2.10
2022-09-16T16:41:14.779Z,1.40
2022-09-16T16:44:42.219Z,1.90
2022-09-16T16:48:10.938Z,1.40
2022-09-16T16:51:37.438Z,1.50
2022-09-16T16:55:04.658Z,1.70
2022-09-16T16:58:33.182Z,2.00
2022-09-16T17:02:00.383Z,1.90
2022-09-16T17:05:27.275Z,2.40
2022-09-16T17:08:53.905Z,2.60
2022-09-16T17:12:20.574Z,2.60
2022-09-16T17:15:47.522Z,2.30
2022-09-16T17:19:14.964Z,2.00
2022-09-16T17:22:42.138Z,1.90
2022-09-16T17:26:10.365Z,1.70
2022-09-16T17:29:37.099Z,1.80
2022-09-16T17:33:03.792Z,1.80
2022-09-16T17:36:31.619Z,1.80
2022-09-16T17:39:58.464Z,2.30
2022-09-16T17:43:32.193Z,2.20
2022-09-16T17:46:59.517Z,2.20
2022-09-16T17:50:26.658Z,2.20
2022-09-16T17:53:53.570Z,1.70
2022-09-16T17:57:20.228Z,2.80
2022-09-16T18:00:47.284Z,1.80
2022-09-16T18:04:14.481Z,2.80
2022-09-16T18:07:41.543Z,1.80
2022-09-16T18:11:10.521Z,1.80
2022-09-16T18:14:37.387Z,2.00
2022-09-16T18:18:04.545Z,2.50
2022-09-16T18:21:33.215Z,2.50
2022-09-16T18:25:00.134Z,2.40
2022-09-16T18:28:26.824Z,2.50
2022-09-16T18:31:54.833Z,2.20
2022-09-16T18:35:21.624Z,2.20
2022-09-16T18:38:52.859Z,2.40
2022-09-16T18:42:20.439Z,2.20
2022-09-16T18:45:47.422Z,2.30
2022-09-16T18:49:16.393Z,2.90
2022-09-16T18:52:43.974Z,2.70
2022-09-16T18:56:15.352Z,2.90
2022-09-16T18:59:42.224Z,2.70
2022-09-16T19:03:09.002Z,3.10
2022-09-16T19:06:38.839Z,2.70
2022-09-16T19:10:06.049Z,3.50
2022-09-16T19:13:33.326Z,4.40
2022-09-16T19:17:00.258Z,3.60
2022-09-16T19:20:27.269Z,3.40
2022-09-16T19:23:58.902Z,3.40
2022-09-16T19:27:25.779Z,3.60
2022-09-16T19:30:53.346Z,2.90
2022-09-16T19:34:22.749Z,3.50
2022-09-16T19:37:51.175Z,3.40
2022-09-16T19:41:19.500Z,3.60
2022-09-16T19:44:46.399Z,4.40
2022-09-16T19:48:13.098Z,4.00
2022-09-16T19:51:39.691Z,3.80
2022-09-16T19:55:07.699Z,4.00
2022-09-16T19:58:36.050Z,3.90
2022-09-16T20:02:03.752Z,3.80
2022-09-16T20:05:31.147Z,3.60
2022-09-16T20:08:59.848Z,3.30
2022-09-16T20:12:26.757Z,3.60
2022-09-16T20:15:57.239Z,3.30
2022-09-16T20:19:23.873Z,3.40
2022-09-16T20:22:50.604Z,3.60
2022-09-16T20:26:19.837Z,3.60
2022-09-16T20:29:46.782Z,3.30
2022-09-16T20:33:13.659Z,3.40
2022-09-16T20:36:41.615Z,3.30
2022-09-16T20:40:10.363Z,3.50
2022-09-16T20:43:38.256Z,3.00
2022-09-16T20:47:05.121Z,3.20
2022-09-16T20:50:31.844Z,3.20
2022-09-16T20:54:04.929Z,3.40
2022-09-16T20:57:34.034Z,3.40
2022-09-16T21:01:07.884Z,3.40
2022-09-16T21:04:34.579Z,3.60
2022-09-16T21:08:01.610Z,2.80
2022-09-16T21:11:30.204Z,2.70
2022-09-16T21:14:57.900Z,3.10
2022-09-16T21:18:25.466Z,2.40
2022-09-16T21:21:52.753Z,2.60
2022-09-16T21:25:19.461Z,2.90
2022-09-16T21:28:51.297Z,2.90
2022-09-16T21:32:18.237Z,2.80
2022-09-16T21:35:52.970Z,2.40
2022-09-16T21:39:21.838Z,2.30
2022-09-16T21:42:48.938Z,2.00
2022-09-16T21:46:17.163Z,2.50
2022-09-16T21:49:44.796Z,2.00
2022-09-16T21:53:11.920Z,1.70
2022-09-16T21:56:41.084Z,2.60
2022-09-16T22:00:13.162Z,2.00
2022-09-16T22:07:05.446Z,2.20
2022-09-16T22:10:32.947Z,2.70
2022-09-16T22:14:01.019Z,2.50
2022-09-16T22:17:28.914Z,2.10
2022-09-16T22:20:58.603Z,2.40
2022-09-16T22:24:25.265Z,2.70
2022-09-16T22:27:52.909Z,2.90
2022-09-16T22:31:22.669Z,2.50
2022-09-16T22:38:14.594Z,2.70
2022-09-16T22:41:41.608Z,3.20
2022-09-16T22:45:10.571Z,3.20
2022-09-16T22:48:37.411Z,2.70
2022-09-16T22:52:04.991Z,3.20
2022-09-16T22:55:32.524Z,3.10
2022-09-16T22:58:59.897Z,2.90
2022-09-16T23:02:26.626Z,3.20
2022-09-16T23:06:01.569Z,3.00
2022-09-16T23:09:28.577Z,3.00
2022-09-16T23:12:55.463Z,3.40
2022-09-16T23:16:27.071Z,2.80
2022-09-16T23:19:54.701Z,3.30
2022-09-16T23:23:21.422Z,3.20
2022-09-16T23:26:49.326Z,3.60
2022-09-16T23:30:16.784Z,3.10
2022-09-16T23:33:44.653Z,2.90
2022-09-16T23:37:11.205Z,3.60
2022-09-16T23:40:41.073Z,4.00
2022-09-16T23:44:08.241Z,3.80
2022-09-16T23:47:35.005Z,3.50
2022-09-16T23:51:02.100Z,4.10
2022-09-16T23:54:29.078Z,3.90
2022-09-16T23:57:55.779Z,3.30
